createdAt,value
2019-03-24T00:01:27.020Z,17.73
2019-03-24T00:06:29.406Z,17.83
2019-03-24T00:11:30.899Z,16.40
2019-03-24T00:16:33.158Z,16.07
2019-03-24T00:21:34.665Z,15.20
2019-03-24T00:26:36.686Z,15.27
2019-03-24T00:31:38.264Z,14.63
2019-03-24T00:36:39.743Z,14.03
2019-03-24T00:41:41.618Z,14.47
2019-03-24T00:46:44.623Z,13.83
2019-03-24T00:51:46.099Z,12.93
2019-03-24T00:56:47.888Z,13.20
2019-03-24T01:01:49.739Z,13.83
2019-03-24T01:06:51.822Z,13.73
2019-03-24T01:11:53.584Z,14.77
2019-03-24T01:16:55.818Z,15.70
2019-03-24T01:21:57.378Z,11.40
2019-03-24T01:26:58.850Z,11.00
2019-03-24T01:32:00.770Z,10.67
2019-03-24T01:37:02.342Z,11.97
2019-03-24T01:42:04.744Z,12.40
2019-03-24T01:47:06.220Z,10.77
2019-03-24T01:52:08.243Z,10.67
2019-03-24T01:57:10.063Z,9.77
2019-03-24T02:02:11.570Z,9.53
2019-03-24T02:07:13.573Z,10.20
2019-03-24T02:12:15.203Z,9.30
2019-03-24T02:17:17.448Z,9.17
2019-03-24T02:22:18.924Z,9.40
2019-03-24T02:27:21.358Z,10.07
2019-03-24T02:32:22.906Z,8.93
2019-03-24T02:37:25.041Z,8.90
2019-03-24T02:42:26.660Z,8.80
2019-03-24T02:47:28.148Z,10.20
2019-03-24T02:52:29.622Z,10.27
2019-03-24T02:57:32.300Z,9.83
2019-03-24T03:02:33.972Z,9.43
2019-03-24T03:07:35.428Z,8.93
2019-03-24T03:12:37.121Z,8.17
2019-03-24T03:17:38.575Z,8.83
2019-03-24T03:22:40.164Z,8.10
2019-03-24T03:27:41.718Z,21.07
2019-03-24T03:32:43.231Z,97.17
2019-03-24T03:37:44.812Z,105.23
2019-03-24T03:42:46.579Z,96.30
2019-03-24T03:47:48.093Z,61.37
2019-03-24T03:52:49.872Z,37.67
2019-03-24T03:57:51.722Z,49.27
2019-03-24T04:02:53.337Z,71.17
2019-03-24T04:07:55.149Z,30.70
2019-03-24T04:12:56.619Z,16.03
2019-03-24T04:17:58.273Z,11.93
2019-03-24T04:22:59.753Z,10.83
2019-03-24T04:28:01.232Z,9.33
2019-03-24T04:33:02.818Z,9.07
2019-03-24T04:38:04.380Z,8.57
2019-03-24T04:43:06.343Z,8.23
2019-03-24T04:48:07.937Z,7.93
2019-03-24T04:53:09.776Z,6.97
2019-03-24T04:58:11.552Z,7.40
2019-03-24T05:03:13.438Z,7.63
2019-03-24T05:08:16.638Z,7.97
2019-03-24T05:13:18.110Z,7.13
2019-03-24T05:18:19.659Z,8.00
2019-03-24T05:23:21.461Z,8.63
2019-03-24T05:28:22.944Z,8.27
2019-03-24T05:33:24.899Z,7.63
2019-03-24T05:38:26.396Z,7.20
2019-03-24T05:43:27.935Z,6.97
2019-03-24T05:48:29.715Z,7.20
2019-03-24T05:53:31.179Z,7.00
2019-03-24T05:58:32.663Z,6.87
2019-03-24T06:03:34.194Z,7.03
2019-03-24T06:08:35.899Z,7.30
2019-03-24T06:13:37.564Z,6.77
2019-03-24T06:18:39.035Z,7.23
2019-03-24T06:23:40.986Z,5.27
2019-03-24T06:28:42.872Z,5.37
2019-03-24T06:33:44.368Z,5.43
2019-03-24T06:38:45.846Z,5.10
2019-03-24T06:43:47.395Z,5.20
2019-03-24T06:48:49.233Z,5.37
2019-03-24T06:53:50.701Z,8.67
2019-03-24T06:58:52.582Z,7.70
2019-03-24T07:03:54.351Z,5.67
2019-03-24T07:08:55.845Z,4.73
2019-03-24T07:13:57.319Z,4.53
2019-03-24T07:18:59.261Z,4.03
2019-03-24T07:24:00.745Z,3.83
2019-03-24T07:29:02.207Z,4.30
2019-03-24T07:34:03.685Z,3.80
2019-03-24T07:39:06.571Z,3.90
2019-03-24T07:44:08.117Z,3.93
2019-03-24T07:49:09.888Z,3.67
2019-03-24T07:54:11.683Z,4.13
2019-03-24T07:59:13.487Z,4.30
2019-03-24T08:04:15.195Z,3.57
2019-03-24T08:09:16.742Z,4.20
2019-03-24T08:14:18.464Z,4.17
2019-03-24T08:19:19.949Z,3.57
2019-03-24T08:24:21.357Z,3.40
2019-03-24T08:29:22.900Z,4.33
2019-03-24T08:34:24.875Z,3.53
2019-03-24T08:39:26.855Z,3.07
2019-03-24T08:44:28.794Z,4.10
2019-03-24T08:49:30.670Z,3.83
2019-03-24T08:54:32.152Z,3.40
2019-03-24T08:59:33.660Z,4.03
2019-03-24T09:04:35.222Z,4.03
2019-03-24T09:09:36.777Z,3.87
2019-03-24T09:14:38.602Z,4.77
2019-03-24T09:19:40.087Z,3.93
2019-03-24T09:24:41.591Z,3.93
2019-03-24T09:29:43.249Z,3.77
2019-03-24T09:34:44.738Z,3.93
2019-03-24T09:39:46.325Z,3.40
2019-03-24T09:44:47.861Z,3.10
2019-03-24T09:49:49.418Z,2.90
2019-03-24T09:54:50.900Z,2.73
2019-03-24T09:59:52.404Z,2.90
2019-03-24T10:04:54.967Z,2.97
2019-03-24T10:09:57.108Z,2.93
2019-03-24T10:14:58.566Z,3.20
2019-03-24T10:20:00.022Z,2.20
2019-03-24T10:25:01.673Z,3.10
2019-03-24T10:30:06.489Z,2.73
2019-03-24T10:35:09.070Z,2.87
2019-03-24T10:40:12.049Z,2.83
2019-03-24T10:45:14.478Z,3.10
2019-03-24T10:50:15.958Z,3.20
2019-03-24T10:55:17.657Z,3.37
2019-03-24T11:00:39.322Z,2.87
2019-03-24T11:05:41.221Z,2.90
2019-03-24T11:10:43.578Z,2.97
2019-03-24T11:15:45.456Z,2.77
2019-03-24T11:20:46.921Z,2.50
2019-03-24T11:25:48.491Z,3.20
2019-03-24T11:30:50.144Z,3.87
2019-03-24T11:35:51.930Z,3.13
2019-03-24T11:40:54.116Z,4.23
2019-03-24T11:45:56.109Z,3.90
2019-03-24T11:50:57.589Z,3.47
2019-03-24T11:55:59.591Z,3.93
2019-03-24T12:01:01.126Z,3.40
2019-03-24T12:06:13.659Z,2.60
2019-03-24T12:11:06.703Z,2.40
2019-03-24T12:16:08.507Z,2.53
2019-03-24T12:21:10.568Z,2.77
2019-03-24T12:26:12.490Z,2.90
2019-03-24T12:31:14.501Z,2.17
2019-03-24T12:36:16.076Z,2.30
2019-03-24T12:41:17.764Z,2.43
2019-03-24T12:46:19.358Z,2.07
2019-03-24T12:51:21.159Z,2.30
2019-03-24T12:56:23.083Z,2.20
2019-03-24T13:01:24.661Z,2.37
2019-03-24T13:06:26.767Z,1.93
2019-03-24T13:11:28.377Z,1.90
2019-03-24T13:16:30.019Z,1.83
2019-03-24T13:21:31.805Z,1.87
2019-03-24T13:26:34.630Z,2.70
2019-03-24T13:31:38.850Z,2.63
2019-03-24T13:36:41.245Z,2.57
2019-03-24T13:41:43.040Z,2.30
2019-03-24T13:46:44.498Z,2.00
2019-03-24T13:51:45.985Z,2.27
2019-03-24T13:56:47.938Z,2.23
2019-03-24T14:01:49.420Z,2.30
2019-03-24T14:06:51.011Z,2.53
2019-03-24T14:11:52.639Z,2.87
2019-03-24T14:16:54.315Z,2.40
2019-03-24T14:21:55.809Z,2.50
2019-03-24T14:26:57.283Z,2.53
2019-03-24T14:31:58.856Z,2.10
2019-03-24T14:37:00.458Z,9.83
2019-03-24T14:42:02.975Z,2.90
2019-03-24T14:47:04.789Z,3.53
2019-03-24T14:52:06.475Z,2.10
2019-03-24T14:57:08.045Z,2.93
2019-03-24T15:02:09.582Z,3.37
2019-03-24T15:07:11.539Z,1.90
2019-03-24T15:12:13.456Z,2.83
2019-03-24T15:17:15.604Z,2.30
2019-03-24T15:22:17.472Z,2.60
2019-03-24T15:27:19.055Z,3.17
2019-03-24T15:32:20.543Z,4.50
2019-03-24T15:37:22.007Z,3.30
2019-03-24T15:42:23.786Z,2.77
2019-03-24T15:47:25.634Z,2.30
2019-03-24T15:52:27.125Z,2.23
2019-03-24T15:57:29.069Z,2.20
2019-03-24T16:02:30.531Z,3.03
2019-03-24T16:07:32.366Z,2.67
2019-03-24T16:12:34.219Z,3.50
2019-03-24T16:17:35.709Z,7.83
2019-03-24T16:22:37.260Z,4.50
2019-03-24T16:27:38.954Z,5.03
2019-03-24T16:32:40.439Z,6.37
2019-03-24T16:37:42.361Z,8.17
2019-03-24T16:42:44.193Z,4.70
2019-03-24T16:47:46.082Z,3.90
2019-03-24T16:52:47.713Z,3.40
2019-03-24T16:57:49.943Z,5.70
2019-03-24T17:02:51.917Z,4.67
2019-03-24T17:07:53.395Z,5.90
2019-03-24T17:12:55.310Z,3.30
2019-03-24T17:17:56.974Z,4.10
2019-03-24T17:22:58.463Z,4.90
2019-03-24T17:28:00.010Z,11.63
2019-03-24T17:33:01.859Z,10.43
2019-03-24T17:38:03.605Z,9.77
2019-03-24T17:43:05.606Z,13.53
2019-03-24T17:48:07.187Z,13.40
2019-03-24T17:53:08.665Z,6.43
2019-03-24T17:58:10.506Z,6.37
2019-03-24T18:03:12.151Z,5.73
2019-03-24T18:08:13.954Z,6.63
2019-03-24T18:13:15.645Z,4.83
2019-03-24T18:18:17.215Z,5.10
2019-03-24T18:23:18.807Z,4.53
2019-03-24T18:28:20.584Z,5.70
2019-03-24T18:33:22.479Z,5.87
2019-03-24T18:38:24.281Z,6.83
2019-03-24T18:43:26.192Z,7.67
2019-03-24T18:48:27.683Z,7.70
2019-03-24T18:53:29.257Z,8.37
2019-03-24T18:58:32.028Z,8.60
2019-03-24T19:03:33.776Z,11.27
2019-03-24T19:08:35.258Z,15.93
2019-03-24T19:13:36.836Z,24.37
2019-03-24T19:18:38.390Z,25.93
2019-03-24T19:23:40.342Z,21.23
2019-03-24T19:28:42.014Z,18.67
2019-03-24T19:33:43.630Z,16.90
2019-03-24T19:38:45.498Z,15.90
2019-03-24T19:43:47.169Z,20.83
2019-03-24T19:48:48.810Z,23.47
2019-03-24T19:53:50.320Z,19.87
2019-03-24T19:58:52.168Z,19.77
2019-03-24T20:03:53.915Z,16.60
2019-03-24T20:08:55.430Z,14.03
2019-03-24T20:13:57.152Z,16.23
2019-03-24T20:18:58.687Z,16.37
2019-03-24T20:24:00.499Z,25.37
2019-03-24T20:29:02.008Z,32.03
2019-03-24T20:34:03.485Z,37.37
2019-03-24T20:39:08.179Z,39.37
2019-03-24T20:44:11.427Z,36.73
2019-03-24T20:49:13.471Z,34.50
2019-03-24T20:54:15.027Z,31.77
2019-03-24T20:59:16.947Z,30.83
2019-03-24T21:04:20.282Z,32.97
2019-03-24T21:09:22.333Z,28.17
2019-03-24T21:14:23.898Z,24.67
2019-03-24T21:19:25.496Z,26.53
2019-03-24T21:24:26.976Z,30.13
2019-03-24T21:29:28.565Z,30.10
2019-03-24T21:34:30.445Z,27.03
2019-03-24T21:39:32.247Z,25.90
2019-03-24T21:44:34.062Z,24.40
2019-03-24T21:49:35.593Z,17.33
2019-03-24T21:54:37.242Z,13.70
2019-03-24T21:59:38.720Z,13.07
2019-03-24T22:04:40.179Z,12.80
2019-03-24T22:09:41.672Z,12.13
2019-03-24T22:14:43.255Z,12.87
2019-03-24T22:19:45.078Z,12.90
2019-03-24T22:24:46.575Z,12.60
2019-03-24T22:29:48.056Z,10.73
2019-03-24T22:34:50.002Z,9.37
2019-03-24T22:39:51.485Z,10.03
2019-03-24T22:44:53.435Z,9.47
2019-03-24T22:49:55.168Z,9.40
2019-03-24T22:54:56.706Z,8.47
2019-03-24T22:59:59.469Z,8.43
2019-03-24T23:05:01.243Z,8.20
2019-03-24T23:10:04.759Z,7.20
2019-03-24T23:15:07.048Z,8.57
2019-03-24T23:20:09.138Z,8.87
2019-03-24T23:25:10.738Z,9.10
2019-03-24T23:30:13.042Z,10.30
2019-03-24T23:35:14.637Z,10.53
2019-03-24T23:40:16.216Z,10.53
2019-03-24T23:45:17.842Z,7.83
2019-03-24T23:50:19.399Z,7.47
2019-03-24T23:55:20.974Z,7.67
